메인 페이지
METAR-TAF:

METAR-TAF

공항 :

오데사, 우크라이나

위도: 46-26N, 경도: 030-46E, 고도: 42m

현재 날씨관측

예보는 19분 전, 02:00시(UTC)에 발표되었습니다.
무풍
온도 17°C
습도 68%
기압 1015 hPa
시정 10km 이상
1500m 미만 상공 구름 및 적란운 없음

METAR: UKOO 210200Z 00000MPS CAVOK 17/11 Q1015 R34/090060 NOSIG

시각: 05:19 (02:19 UTC)

예보

예보는 3 시간 11분 전, 23:08시(UTC)에 발표되었습니다.
예보 대상 시간: 21일 00시부터 21일 24시까지 (UTC)
북북동6kt
시정 10km 이상
고도 2500ft 상공 구름 보통, 적란운.
일시적
21일 10시부터 21일 18시까지 (UTC)
6kt, 순간 최대 풍속 17kt
전환 중
21일 18시부터 21일 19시까지 (UTC)
6kt

TAF: UKOO 202308Z 2100/2124 03003MPS 9999 SCT025CB TX30/2112Z TN16/2102Z TEMPO 2110/2118 17003G09MPS BECMG 2118/2119 26003MPS

4,000개 이상의 공항 관측 자료 및 예보 (METAR 및 TAF 보고).

지도상에서 검색 가능한 기상관측소가 노란 점과 빨간 점으로 표시되어 있습니다.

기상관측소 명을 보려면 표시 위로 마우스를 이동하세요.

날씨 관측과 예보를 보려면 클릭하세요.

지도 변경 : 확대하려면 엑스 표시가 있는 녹색 버튼, 축소하려면 빼기 표시가 있는 녹색 버튼, 다음 페이지의 지도를 보려면 녹색 화살표를 클릭하세요.


METAR-TAF: